Norcross, Minnesota
Current Conditions -  °F | °C
As of 11:16 PM on Friday 24 Oct 2014 (Local Time) from KY63 Reporting Station
Broken Clouds Broken Clouds  
Wind Chill: 56°   Ceiling: 12000
Heat Index: 56°   Visibility: 10mi
Dew Point: 37°   Wind: 8mph
Humidity: 48%   Direction: 300°WNW
Pressure: 29.94"   Gusts: NA
Location:  45.87°N, 96.2°W
Report Text: KY63 250416Z AUTO 30007KT 10SM BKN120 14/03 A2994 RMK AO2 T01350027
Loading
Personal Weather Stations






























Interactive Weather Map
Tropical Storm Tracking
New forecast layout! Learn more

10-Day Weather Forecast

Advertisements
Track Severe Weather on mobile